createdAt,value
2024-05-09T00:02:18.895Z,21.70
2024-05-09T00:05:06.646Z,23.50
2024-05-09T00:07:57.207Z,24.37
2024-05-09T00:10:44.712Z,21.20
2024-05-09T00:13:32.588Z,22.83
2024-05-09T00:16:19.924Z,22.07
2024-05-09T00:19:07.983Z,22.50
2024-05-09T00:21:56.042Z,23.10
2024-05-09T00:24:46.461Z,22.93
2024-05-09T00:27:33.725Z,21.60
2024-05-09T00:30:30.674Z,24.17
2024-05-09T00:33:22.072Z,21.47
2024-05-09T00:36:09.626Z,21.87
2024-05-09T00:38:57.541Z,22.67
2024-05-09T00:41:47.500Z,22.73
2024-05-09T00:44:35.502Z,22.60
2024-05-09T00:47:24.113Z,22.07
2024-05-09T00:50:19.222Z,22.97
2024-05-09T00:53:12.274Z,22.27
2024-05-09T00:56:01.356Z,22.20
2024-05-09T00:58:52.076Z,21.23
2024-05-09T01:01:41.996Z,22.40
2024-05-09T01:04:29.610Z,22.60
2024-05-09T01:07:17.126Z,22.03
2024-05-09T01:10:09.186Z,21.63
2024-05-09T01:12:59.389Z,23.00
2024-05-09T01:15:50.180Z,22.87
2024-05-09T01:18:38.086Z,22.47
2024-05-09T01:21:26.006Z,21.73
2024-05-09T01:24:16.103Z,23.07
2024-05-09T01:27:04.260Z,21.40
2024-05-09T01:29:51.523Z,22.67
2024-05-09T01:32:39.552Z,22.07
2024-05-09T01:35:27.883Z,23.03
2024-05-09T01:38:17.349Z,23.43
2024-05-09T01:41:08.282Z,22.40
2024-05-09T01:43:56.103Z,22.57
2024-05-09T01:46:43.915Z,21.43
2024-05-09T01:49:34.158Z,23.00
2024-05-09T01:52:22.105Z,22.47
2024-05-09T01:55:09.953Z,22.63
2024-05-09T01:57:59.814Z,22.23
2024-05-09T02:00:47.489Z,22.73
2024-05-09T02:03:35.138Z,21.60
2024-05-09T02:06:23.031Z,20.20
2024-05-09T02:09:10.582Z,21.40
2024-05-09T02:11:58.520Z,21.60
2024-05-09T02:14:48.555Z,20.67
2024-05-09T02:17:36.506Z,23.07
2024-05-09T02:20:33.062Z,21.90
2024-05-09T02:23:23.935Z,20.17
2024-05-09T02:26:11.477Z,20.03
2024-05-09T02:29:00.033Z,21.83
2024-05-09T02:31:50.180Z,21.23
2024-05-09T02:34:38.150Z,20.23
2024-05-09T02:37:25.611Z,21.30
2024-05-09T02:40:15.029Z,21.60
2024-05-09T02:43:12.195Z,20.57
2024-05-09T02:46:00.751Z,22.30
2024-05-09T02:48:51.009Z,20.73
2024-05-09T02:51:38.564Z,22.27
2024-05-09T02:54:26.577Z,22.53
2024-05-09T02:57:14.182Z,21.40
2024-05-09T03:00:01.772Z,20.83
2024-05-09T03:02:49.425Z,21.77
2024-05-09T03:05:40.581Z,21.80
2024-05-09T03:08:28.617Z,22.30
2024-05-09T03:11:23.392Z,20.67
2024-05-09T03:14:11.027Z,19.63
2024-05-09T03:16:58.973Z,20.30
2024-05-09T03:19:46.501Z,19.83
2024-05-09T03:22:37.084Z,22.33
2024-05-09T03:25:24.543Z,21.20
2024-05-09T03:28:13.666Z,21.63
2024-05-09T03:31:00.921Z,20.63
2024-05-09T03:33:49.018Z,22.00
2024-05-09T03:36:40.712Z,21.67
2024-05-09T03:39:31.199Z,22.43
2024-05-09T03:42:18.475Z,22.70
2024-05-09T03:45:06.815Z,21.63
2024-05-09T03:47:54.319Z,22.93
2024-05-09T03:50:42.602Z,22.47
2024-05-09T03:53:30.124Z,22.17
2024-05-09T03:56:20.647Z,21.80
2024-05-09T03:59:08.138Z,22.50
2024-05-09T04:01:56.236Z,22.17
2024-05-09T04:04:45.050Z,22.00
2024-05-09T04:07:34.485Z,23.67
2024-05-09T04:10:30.197Z,23.33
2024-05-09T04:13:23.661Z,21.57
2024-05-09T04:16:11.506Z,21.27
2024-05-09T04:18:59.447Z,22.67
2024-05-09T04:21:46.977Z,22.30
2024-05-09T04:24:34.837Z,21.97
2024-05-09T04:27:22.095Z,21.87
2024-05-09T04:30:19.096Z,22.60
2024-05-09T04:33:15.310Z,21.33
2024-05-09T04:36:03.548Z,21.87
2024-05-09T04:38:50.814Z,21.57
2024-05-09T04:41:39.182Z,22.27
2024-05-09T04:44:26.723Z,21.73
2024-05-09T04:47:17.138Z,21.93
2024-05-09T04:50:08.855Z,20.73
2024-05-09T04:52:58.917Z,22.30
2024-05-09T04:55:46.951Z,21.43
2024-05-09T04:58:34.406Z,21.70
2024-05-09T05:01:22.082Z,21.00
2024-05-09T05:04:12.342Z,21.23
2024-05-09T05:07:02.509Z,19.97
2024-05-09T05:09:50.398Z,20.80
2024-05-09T05:12:56.684Z,21.10
2024-05-09T05:15:45.080Z,20.50
2024-05-09T05:18:32.764Z,20.07
2024-05-09T05:21:22.992Z,20.17
2024-05-09T05:24:10.990Z,19.93
2024-05-09T05:26:58.287Z,19.97
2024-05-09T05:29:45.709Z,21.10
2024-05-09T05:32:33.398Z,19.97
2024-05-09T05:35:21.570Z,20.87
2024-05-09T05:38:11.736Z,18.73
2024-05-09T05:40:59.284Z,20.50
2024-05-09T05:43:46.802Z,19.67
2024-05-09T05:46:34.397Z,19.93
2024-05-09T05:49:21.750Z,18.97
2024-05-09T05:52:11.478Z,18.40
2024-05-09T05:55:01.714Z,19.27
2024-05-09T05:57:49.019Z,18.80
2024-05-09T06:00:39.279Z,19.53
2024-05-09T06:03:29.433Z,19.00
2024-05-09T06:06:17.439Z,19.30
2024-05-09T06:09:04.916Z,18.20
2024-05-09T06:11:55.434Z,17.50
2024-05-09T06:14:43.312Z,18.20
2024-05-09T06:17:31.611Z,18.25
2024-05-09T06:20:24.056Z,16.77
2024-05-09T06:23:19.770Z,16.30
2024-05-09T06:26:07.277Z,17.30
2024-05-09T06:28:58.044Z,16.83
2024-05-09T06:31:46.605Z,15.70
2024-05-09T06:34:34.758Z,15.95
2024-05-09T06:37:22.281Z,16.40
2024-05-09T06:40:12.557Z,17.17
2024-05-09T06:43:02.274Z,17.23
2024-05-09T06:45:55.143Z,16.70
2024-05-09T06:48:43.481Z,15.65
2024-05-09T06:51:31.030Z,15.02
2024-05-09T06:54:18.891Z,16.08
2024-05-09T06:57:06.365Z,14.45
2024-05-09T06:59:56.620Z,15.88
2024-05-09T07:02:47.782Z,15.93
2024-05-09T07:05:35.877Z,15.43
2024-05-09T07:08:23.451Z,14.50
2024-05-09T07:11:11.041Z,13.60
2024-05-09T07:13:58.777Z,13.65
2024-05-09T07:16:46.336Z,14.20
2024-05-09T07:19:36.656Z,14.20
2024-05-09T07:22:25.766Z,14.48
2024-05-09T07:25:13.095Z,14.65
2024-05-09T07:28:00.679Z,14.25
2024-05-09T07:30:48.381Z,14.15
2024-05-09T07:33:35.895Z,13.98
2024-05-09T07:36:26.392Z,15.10
2024-05-09T07:39:13.733Z,14.68
2024-05-09T07:42:01.036Z,14.20
2024-05-09T07:44:48.880Z,12.98
2024-05-09T07:48:58.133Z,13.77
2024-05-09T07:53:47.512Z,11.65
2024-05-09T07:56:38.985Z,12.18
2024-05-09T07:59:26.356Z,11.95
2024-05-09T08:02:14.401Z,12.88
2024-05-09T08:05:01.928Z,11.63
2024-05-09T08:07:50.696Z,13.48
2024-05-09T08:10:40.766Z,11.95
2024-05-09T08:13:28.696Z,11.30
2024-05-09T08:16:16.067Z,12.40
2024-05-09T08:19:03.923Z,11.73
2024-05-09T08:21:51.683Z,11.82
2024-05-09T08:24:39.209Z,10.90
2024-05-09T08:27:29.697Z,12.15
2024-05-09T08:30:24.673Z,13.00
2024-05-09T08:33:17.380Z,11.57
2024-05-09T08:36:05.032Z,11.25
2024-05-09T08:38:52.714Z,9.63
2024-05-09T08:41:42.771Z,11.05
2024-05-09T08:44:33.142Z,9.77
2024-05-09T08:47:20.635Z,9.45
2024-05-09T08:50:20.241Z,9.00
2024-05-09T08:53:16.562Z,8.27
2024-05-09T08:56:05.687Z,8.88
2024-05-09T08:58:55.957Z,8.20
2024-05-09T09:01:47.564Z,8.32
2024-05-09T09:04:39.156Z,8.88
2024-05-09T09:07:27.715Z,8.70
2024-05-09T09:10:24.908Z,6.80
2024-05-09T09:13:17.580Z,7.07
2024-05-09T09:16:06.838Z,7.03
2024-05-09T09:18:58.017Z,7.47
2024-05-09T09:21:45.643Z,7.38
2024-05-09T09:24:33.609Z,7.47
2024-05-09T09:27:22.450Z,7.18
2024-05-09T09:30:22.947Z,7.78
2024-05-09T09:33:18.517Z,7.10
2024-05-09T09:36:11.187Z,6.85
2024-05-09T09:38:59.132Z,6.93
2024-05-09T09:41:48.876Z,6.13
2024-05-09T09:44:39.605Z,6.38
2024-05-09T09:47:32.140Z,6.07
2024-05-09T09:50:27.556Z,6.38
2024-05-09T09:53:24.261Z,6.95
2024-05-09T09:56:13.269Z,6.20
2024-05-09T09:59:04.190Z,6.65
2024-05-09T10:01:51.676Z,7.13
2024-05-09T10:04:40.037Z,6.15
2024-05-09T10:07:29.673Z,6.22
2024-05-09T10:10:31.880Z,6.63
2024-05-09T10:13:21.280Z,7.00
2024-05-09T10:16:11.492Z,10.05
2024-05-09T10:18:59.351Z,7.13
2024-05-09T10:21:47.405Z,6.13
2024-05-09T10:24:48.474Z,6.70
2024-05-09T10:27:39.096Z,6.30
2024-05-09T10:30:34.059Z,6.15
2024-05-09T10:33:24.749Z,6.50
2024-05-09T10:36:12.849Z,7.20
2024-05-09T10:39:00.486Z,7.20
2024-05-09T10:41:49.043Z,7.15
2024-05-09T10:44:40.661Z,7.80
2024-05-09T10:47:29.600Z,6.93
2024-05-09T10:50:25.316Z,6.97
2024-05-09T10:53:17.296Z,7.93
2024-05-09T10:56:05.321Z,7.43
2024-05-09T10:58:53.232Z,8.13
2024-05-09T11:01:43.704Z,7.38
2024-05-09T11:04:33.222Z,7.40
2024-05-09T11:07:21.827Z,7.28
2024-05-09T11:10:12.538Z,7.63
2024-05-09T11:13:02.074Z,7.80
2024-05-09T11:15:49.920Z,7.75
2024-05-09T11:18:40.541Z,7.32
2024-05-09T11:21:28.825Z,7.53
2024-05-09T11:24:16.500Z,8.10
2024-05-09T11:27:05.668Z,7.38
2024-05-09T11:29:53.020Z,7.70
2024-05-09T11:32:42.988Z,8.07
2024-05-09T11:35:33.210Z,7.32
2024-05-09T11:38:21.318Z,6.40
2024-05-09T11:41:08.725Z,6.05
2024-05-09T11:43:58.188Z,6.85
2024-05-09T11:46:45.493Z,6.60
2024-05-09T11:49:33.749Z,5.85
2024-05-09T11:52:24.036Z,6.45
2024-05-09T11:55:12.030Z,6.32
2024-05-09T11:57:59.512Z,6.63
2024-05-09T12:00:47.655Z,6.25
2024-05-09T12:03:37.993Z,6.20
2024-05-09T12:06:25.935Z,5.88
2024-05-09T12:09:16.088Z,5.70
2024-05-09T12:12:05.124Z,5.85
2024-05-09T12:14:52.650Z,6.10
2024-05-09T12:17:40.647Z,6.03
2024-05-09T12:20:35.493Z,5.20
2024-05-09T12:23:26.326Z,5.45
2024-05-09T12:26:16.594Z,6.50
2024-05-09T12:29:04.470Z,5.95
2024-05-09T12:31:51.810Z,5.75
2024-05-09T12:34:39.639Z,5.70
2024-05-09T12:37:27.227Z,5.50
2024-05-09T12:40:22.947Z,5.85
2024-05-09T12:43:21.387Z,5.70
2024-05-09T12:46:09.082Z,5.32
2024-05-09T12:48:56.859Z,5.30
2024-05-09T12:51:44.686Z,5.03
2024-05-09T12:54:33.556Z,4.63
2024-05-09T12:57:21.950Z,4.40
2024-05-09T13:00:20.704Z,4.60
2024-05-09T13:03:15.469Z,4.40
2024-05-09T13:06:03.308Z,4.43
2024-05-09T13:08:50.910Z,4.80
2024-05-09T13:11:38.490Z,4.75
2024-05-09T13:14:26.434Z,4.22
2024-05-09T13:17:16.477Z,4.60
2024-05-09T13:20:07.105Z,4.82
2024-05-09T13:22:56.695Z,4.65
2024-05-09T13:25:44.088Z,5.00
2024-05-09T13:28:33.547Z,5.80
2024-05-09T13:31:21.074Z,4.95
2024-05-09T13:34:11.267Z,5.13
2024-05-09T13:36:59.286Z,5.63
2024-05-09T13:39:47.385Z,5.25
2024-05-09T13:42:34.986Z,5.03
2024-05-09T13:45:22.863Z,4.82
2024-05-09T13:48:10.720Z,5.70
2024-05-09T13:51:00.955Z,4.43
2024-05-09T13:53:48.489Z,5.53
2024-05-09T13:56:37.818Z,4.93
2024-05-09T13:59:25.115Z,5.68
2024-05-09T14:02:13.025Z,5.30
2024-05-09T14:05:00.736Z,4.70
2024-05-09T14:07:51.212Z,5.78
2024-05-09T14:10:44.548Z,5.85
2024-05-09T14:13:32.542Z,5.07
2024-05-09T14:16:19.924Z,5.90
2024-05-09T14:19:07.645Z,5.93
2024-05-09T14:21:55.585Z,5.13
2024-05-09T14:24:45.843Z,5.35
2024-05-09T14:27:33.355Z,4.80
2024-05-09T14:30:30.408Z,5.20
2024-05-09T14:33:27.098Z,5.30
2024-05-09T14:36:14.556Z,5.25
2024-05-09T14:39:02.043Z,4.53
2024-05-09T14:41:52.122Z,4.90
2024-05-09T14:44:39.904Z,5.93
2024-05-09T14:47:27.441Z,5.75
2024-05-09T14:50:23.690Z,4.95
2024-05-09T14:53:15.937Z,4.18
2024-05-09T14:56:03.640Z,3.95
2024-05-09T14:58:55.242Z,4.95
2024-05-09T15:01:43.022Z,4.25
2024-05-09T15:04:30.546Z,4.20
2024-05-09T15:07:18.160Z,4.70
2024-05-09T15:10:11.665Z,4.25
2024-05-09T15:13:04.560Z,4.32
2024-05-09T15:15:55.917Z,3.42
2024-05-09T15:18:44.190Z,3.90
2024-05-09T15:21:31.754Z,3.90
2024-05-09T15:27:34.294Z,3.42
2024-05-09T15:30:30.018Z,4.10
2024-05-09T15:33:22.745Z,9.00
2024-05-09T15:36:10.421Z,4.13
2024-05-09T15:38:57.766Z,4.53
2024-05-09T15:41:45.638Z,3.80
2024-05-09T15:45:04.272Z,3.50
2024-05-09T15:48:30.628Z,3.40
2024-05-09T15:51:43.118Z,3.15
2024-05-09T15:54:39.214Z,4.00
2024-05-09T15:57:41.062Z,3.25
2024-05-09T16:00:39.883Z,3.65
2024-05-09T16:03:33.896Z,3.00
2024-05-09T16:06:32.231Z,3.47
2024-05-09T16:09:50.824Z,3.15
2024-05-09T16:12:38.775Z,3.17
2024-05-09T16:15:32.315Z,3.55
2024-05-09T16:18:20.687Z,3.05
2024-05-09T16:21:12.495Z,3.67
2024-05-09T16:24:06.129Z,3.42
2024-05-09T16:27:03.408Z,3.30
2024-05-09T16:29:51.110Z,3.60
2024-05-09T16:32:41.740Z,2.83
2024-05-09T16:35:29.278Z,2.92
2024-05-09T16:38:17.162Z,3.15
2024-05-09T16:41:04.857Z,2.92
2024-05-09T16:43:55.513Z,3.42
2024-05-09T16:46:42.807Z,3.30
2024-05-09T16:49:30.979Z,2.95
2024-05-09T16:52:26.169Z,3.30
2024-05-09T16:55:16.893Z,4.68
2024-05-09T16:58:06.795Z,3.70
2024-05-09T17:00:57.438Z,3.55
2024-05-09T17:03:48.028Z,3.10
2024-05-09T17:07:09.789Z,3.22
2024-05-09T17:09:57.250Z,3.20
2024-05-09T17:12:48.419Z,3.40
2024-05-09T17:15:37.132Z,2.92
2024-05-09T17:18:28.383Z,3.65
2024-05-09T17:21:15.855Z,3.42
2024-05-09T17:24:03.942Z,3.38
2024-05-09T17:26:53.323Z,3.42
2024-05-09T17:29:40.917Z,3.50
2024-05-09T17:32:31.880Z,3.85
2024-05-09T17:35:22.132Z,4.10
2024-05-09T17:38:10.111Z,4.05
2024-05-09T17:40:58.142Z,3.65
2024-05-09T17:43:57.545Z,4.07
2024-05-09T17:46:45.958Z,4.28
2024-05-09T17:49:42.324Z,3.47
2024-05-09T17:52:38.300Z,4.78
2024-05-09T17:55:48.443Z,6.20
2024-05-09T17:58:38.993Z,4.72
2024-05-09T18:01:27.087Z,7.30
2024-05-09T18:04:14.778Z,4.38
2024-05-09T18:07:06.994Z,4.32
2024-05-09T18:09:57.250Z,4.50
2024-05-09T18:12:45.213Z,4.55
2024-05-09T18:15:32.990Z,6.57
2024-05-09T18:18:21.747Z,5.35
2024-05-09T18:21:09.782Z,4.57
2024-05-09T18:23:59.669Z,4.60
2024-05-09T18:26:50.623Z,4.57
2024-05-09T18:29:38.240Z,4.47
2024-05-09T18:32:25.806Z,4.22
2024-05-09T18:35:15.958Z,4.18
2024-05-09T18:38:26.928Z,4.15
2024-05-09T18:41:18.946Z,3.63
2024-05-09T18:44:10.906Z,4.78
2024-05-09T18:47:02.305Z,4.40
2024-05-09T18:49:50.765Z,3.92
2024-05-09T18:52:39.329Z,3.75
2024-05-09T18:55:26.896Z,4.55
2024-05-09T18:58:17.523Z,4.35
2024-05-09T19:01:10.666Z,5.95
2024-05-09T19:04:04.976Z,5.03
2024-05-09T19:06:53.363Z,5.53
2024-05-09T19:09:43.322Z,6.00
2024-05-09T19:12:39.358Z,7.05
2024-05-09T19:15:27.013Z,5.15
2024-05-09T19:18:17.392Z,5.47
2024-05-09T19:21:06.060Z,5.20
2024-05-09T19:23:55.624Z,5.63
2024-05-09T19:26:43.976Z,5.50
2024-05-09T19:29:34.444Z,5.25
2024-05-09T19:32:23.119Z,5.38
2024-05-09T19:35:32.393Z,5.55
2024-05-09T19:38:20.575Z,5.15
2024-05-09T19:41:08.277Z,5.72
2024-05-09T19:43:56.775Z,5.80
2024-05-09T19:46:46.342Z,6.50
2024-05-09T19:49:35.001Z,6.40
2024-05-09T19:52:27.511Z,6.10
2024-05-09T19:55:16.494Z,6.93
2024-05-09T19:58:07.972Z,6.43
2024-05-09T20:00:58.407Z,6.60
2024-05-09T20:03:51.000Z,7.25
2024-05-09T20:06:51.374Z,6.97
2024-05-09T20:09:45.035Z,7.18
2024-05-09T20:12:33.371Z,7.47
2024-05-09T20:15:22.910Z,7.30
2024-05-09T20:18:28.727Z,7.40
2024-05-09T20:21:16.660Z,7.65
2024-05-09T20:24:07.323Z,9.10
2024-05-09T20:26:57.541Z,8.13
2024-05-09T20:29:46.437Z,7.97
2024-05-09T20:32:34.191Z,8.13
2024-05-09T20:35:22.397Z,7.63
2024-05-09T20:38:10.224Z,7.87
2024-05-09T20:41:03.914Z,7.00
2024-05-09T20:43:58.429Z,7.87
2024-05-09T20:46:45.701Z,7.70
2024-05-09T20:49:33.832Z,7.17
2024-05-09T20:52:21.338Z,8.00
2024-05-09T20:55:09.459Z,7.77
2024-05-09T20:57:57.458Z,8.30
2024-05-09T21:00:48.405Z,8.00
2024-05-09T21:03:38.663Z,7.83
2024-05-09T21:06:26.326Z,7.10
2024-05-09T21:09:14.371Z,7.47
2024-05-09T21:12:01.744Z,6.87
2024-05-09T21:14:50.045Z,6.57
2024-05-09T21:17:40.086Z,7.00
2024-05-09T21:20:31.860Z,7.00
2024-05-09T21:23:20.622Z,7.83
2024-05-09T21:26:08.516Z,7.67
2024-05-09T21:28:55.774Z,7.53
2024-05-09T21:31:43.711Z,7.20
2024-05-09T21:34:33.669Z,6.90
2024-05-09T21:37:21.739Z,8.07
2024-05-09T21:40:13.863Z,8.03
2024-05-09T21:43:08.615Z,8.30
2024-05-09T21:45:56.636Z,7.43
2024-05-09T21:48:44.274Z,7.27
2024-05-09T21:51:34.908Z,7.57
2024-05-09T21:54:22.781Z,8.00
2024-05-09T21:57:13.248Z,8.03
2024-05-09T22:00:01.421Z,8.20
2024-05-09T22:02:48.865Z,8.33
2024-05-09T22:05:37.811Z,7.90
2024-05-09T22:08:28.035Z,8.90
2024-05-09T22:11:15.947Z,9.17
2024-05-09T22:14:03.762Z,9.13
2024-05-09T22:16:51.435Z,8.83
2024-05-09T22:19:39.324Z,8.60
2024-05-09T22:22:27.091Z,8.33
2024-05-09T22:25:17.652Z,7.33
2024-05-09T22:28:06.054Z,7.63
2024-05-09T22:30:55.829Z,7.43
2024-05-09T22:33:46.369Z,7.83
2024-05-09T22:36:35.599Z,8.00
2024-05-09T22:39:25.350Z,6.80
2024-05-09T22:42:15.993Z,6.87
2024-05-09T22:48:10.303Z,7.37
2024-05-09T22:50:57.955Z,6.47
2024-05-09T22:53:45.798Z,6.83
2024-05-09T22:56:33.657Z,6.73
2024-05-09T22:59:34.529Z,6.53
2024-05-09T23:02:24.795Z,7.47
2024-05-09T23:05:13.145Z,5.67
2024-05-09T23:08:01.791Z,6.70
2024-05-09T23:10:53.535Z,6.33
2024-05-09T23:13:41.523Z,6.70
2024-05-09T23:16:31.747Z,6.43
2024-05-09T23:19:19.680Z,6.20
2024-05-09T23:22:07.153Z,6.47
2024-05-09T23:24:55.155Z,7.00
2024-05-09T23:27:43.451Z,6.23
2024-05-09T23:30:37.521Z,6.47
2024-05-09T23:33:30.776Z,6.40
2024-05-09T23:36:18.198Z,6.87
2024-05-09T23:39:06.130Z,6.70
2024-05-09T23:41:53.509Z,6.63
2024-05-09T23:44:41.595Z,6.93
2024-05-09T23:47:28.908Z,6.23
2024-05-09T23:50:26.496Z,7.03
2024-05-09T23:53:21.211Z,5.90
2024-05-09T23:56:08.997Z,6.07
2024-05-09T23:58:56.454Z,6.43
